Time;durP1;ratioP1;P1;durP2;ratioP2;P2;SDS_P1;SDS_P2;PMS_P1;PMS_P2;Temp;Humidity;BMP_temperature;BMP_pressure;BME280_temperature;BME280_humidity;BME280_pressure;Samples;Min_cycle;Max_cycle;Signal;HPM_P1;HPM_P2
2021/05/22 00:00:10;;;;;;;13.93;2.35;;;14.80;86.80;;;;;;12094377;28;20542;-79
2021/05/22 00:05:57;;;;;;;13.40;1.92;;;14.60;86.00;;;;;;12084320;28;20067;-79
2021/05/22 00:11:43;;;;;;;13.32;1.55;;;14.60;86.40;;;;;;12081184;28;20054;-79
2021/05/22 00:17:30;;;;;;;12.65;2.53;;;14.60;86.80;;;;;;12073994;28;20506;-79
2021/05/22 00:23:17;;;;;;;19.35;2.30;;;14.40;88.20;;;;;;12077565;28;20051;-79
2021/05/22 00:29:04;;;;;;;13.20;1.77;;;14.30;88.40;;;;;;12074466;28;20154;-79
2021/05/22 00:34:51;;;;;;;16.98;2.40;;;14.60;88.10;;;;;;12071145;28;20055;-79
2021/05/22 00:40:37;;;;;;;11.73;1.70;;;14.40;89.10;;;;;;12070230;28;20422;-79
2021/05/22 00:46:24;;;;;;;18.52;2.67;;;14.40;89.40;;;;;;12072818;28;20082;-79
2021/05/22 00:52:11;;;;;;;13.05;1.58;;;14.30;90.10;;;;;;12066301;28;20738;-79
2021/05/22 00:57:58;;;;;;;17.00;2.35;;;14.10;90.40;;;;;;12069164;28;20061;-79
2021/05/22 01:03:49;;;;;;;10.70;2.03;;;14.20;90.60;;;;;;12068355;28;20055;-79
2021/05/22 01:09:36;;;;;;;12.10;2.40;;;14.10;91.20;;;;;;12075895;28;20071;-79
2021/05/22 01:15:26;;;;;;;15.68;2.35;;;14.00;91.70;;;;;;12072951;28;20055;-79
2021/05/22 01:21:13;;;;;;;17.63;2.47;;;14.10;91.90;;;;;;12071453;28;20543;-79
2021/05/22 01:27:00;;;;;;;7.88;1.70;;;14.10;92.00;;;;;;12071505;28;20113;-79
2021/05/22 01:32:47;;;;;;;14.73;2.03;;;14.30;92.10;;;;;;12066359;28;20063;-79
2021/05/22 01:38:33;;;;;;;15.38;2.45;;;14.30;92.20;;;;;;12064998;28;20051;-80
2021/05/22 01:44:22;;;;;;;14.70;1.77;;;14.50;92.00;;;;;;12068092;28;20082;-80
2021/05/22 01:50:10;;;;;;;17.63;2.85;;;14.60;91.80;;;;;;12069939;28;20066;-80
2021/05/22 01:55:58;;;;;;;19.77;2.13;;;14.40;92.10;;;;;;12067485;28;20052;-80
2021/05/22 02:01:50;;;;;;;16.35;2.70;;;14.50;92.40;;;;;;12065220;28;20044;-79
2021/05/22 02:07:38;;;;;;;16.10;2.20;;;14.50;92.20;;;;;;12067253;28;20522;-79
2021/05/22 02:13:24;;;;;;;13.95;2.17;;;14.40;92.50;;;;;;12069547;28;20044;-79
2021/05/22 02:19:12;;;;;;;21.33;2.25;;;14.20;93.00;;;;;;12076453;28;20074;-79
2021/05/22 02:24:58;;;;;;;12.93;2.42;;;14.30;93.10;;;;;;12079573;28;20067;-79
2021/05/22 02:30:49;;;;;;;17.55;2.28;;;14.50;93.00;;;;;;12033185;27;20064;-80
2021/05/22 02:36:39;;;;;;;17.98;2.75;;;14.30;93.10;;;;;;12026896;28;20052;-79
2021/05/22 02:42:32;;;;;;;15.30;2.53;;;14.30;93.50;;;;;;12030826;28;20190;-79
2021/05/22 02:48:20;;;;;;;19.83;2.97;;;14.00;94.00;;;;;;12056055;27;20057;-79
2021/05/22 02:54:09;;;;;;;21.10;3.50;;;14.20;93.90;;;;;;12053924;28;20063;-79
2021/05/22 02:59:56;;;;;;;13.43;2.78;;;14.10;94.30;;;;;;12031362;28;20044;-79
2021/05/22 03:05:43;;;;;;;15.30;2.83;;;14.20;94.20;;;;;;12037958;27;20045;-79
2021/05/22 06:25:36;;;;;;;18.63;2.60;;;12.80;99.90;;;;;;12100943;27;20363;-80
2021/05/22 06:31:23;;;;;;;15.27;2.22;;;13.30;99.90;;;;;;12018411;28;20053;-79
2021/05/22 06:37:10;;;;;;;19.55;2.78;;;13.90;99.90;;;;;;11974104;28;20113;-80
2021/05/22 06:42:57;;;;;;;20.83;3.05;;;13.80;99.90;;;;;;12021394;28;20060;-79
2021/05/22 06:48:44;;;;;;;19.15;2.88;;;14.30;99.80;;;;;;12024625;28;20393;-80
2021/05/22 06:54:34;;;;;;;20.08;2.55;;;14.60;98.60;;;;;;12014055;28;20053;-79
2021/05/22 07:00:22;;;;;;;15.95;2.60;;;14.50;98.50;;;;;;12004724;28;20049;-81
2021/05/22 07:06:11;;;;;;;16.85;2.80;;;14.40;98.20;;;;;;12018818;28;20083;-80
2021/05/22 07:11:58;;;;;;;15.48;2.53;;;14.60;97.80;;;;;;11978572;28;20064;-80
2021/05/22 07:17:46;;;;;;;16.98;2.10;;;14.40;98.10;;;;;;11973445;28;20056;-72
2021/05/22 07:23:33;;;;;;;19.77;2.50;;;14.70;98.10;;;;;;11963537;28;20068;-72
2021/05/22 07:29:19;;;;;;;15.18;2.50;;;15.20;96.90;;;;;;11960666;28;20072;-71
2021/05/22 07:35:08;;;;;;;18.92;2.75;;;15.10;96.40;;;;;;11942897;28;20107;-71
2021/05/22 07:40:55;;;;;;;15.95;2.60;;;15.10;96.70;;;;;;11928776;28;20053;-71
2021/05/22 07:46:41;;;;;;;16.23;2.40;;;15.20;96.40;;;;;;11930983;28;20049;-71
2021/05/22 07:52:29;;;;;;;14.70;2.30;;;15.20;96.70;;;;;;11931111;28;20053;-72
2021/05/22 07:58:16;;;;;;;13.68;2.55;;;15.20;96.50;;;;;;11928486;28;20060;-71
2021/05/22 08:04:03;;;;;;;14.07;2.38;;;15.20;96.50;;;;;;11927738;28;20049;-72
2021/05/22 08:09:50;;;;;;;14.90;3.00;;;15.10;96.60;;;;;;11928579;28;20058;-72
2021/05/22 08:15:36;;;;;;;14.13;2.20;;;14.80;97.00;;;;;;11927618;28;20058;-70
2021/05/22 08:21:24;;;;;;;15.80;2.40;;;14.70;98.20;;;;;;11930206;28;20370;-71
2021/05/22 08:27:11;;;;;;;13.88;2.10;;;15.10;97.40;;;;;;11915096;28;20140;-72
2021/05/22 08:32:58;;;;;;;18.98;2.70;;;15.60;96.80;;;;;;11926843;28;20140;-72
2021/05/22 08:38:49;;;;;;;11.82;2.17;;;15.50;96.10;;;;;;11923509;28;20053;-71
2021/05/22 08:44:38;;;;;;;14.73;2.25;;;15.70;95.90;;;;;;11927829;28;20056;-71
2021/05/22 08:50:25;;;;;;;9.27;1.92;;;15.90;95.40;;;;;;11923012;28;20052;-71
2021/05/22 08:56:11;;;;;;;13.93;1.98;;;16.00;94.80;;;;;;11926938;28;20053;-73
2021/05/22 09:01:59;;;;;;;13.70;2.13;;;15.50;94.60;;;;;;11920994;28;20061;-76
2021/05/22 09:07:48;;;;;;;15.27;2.00;;;15.40;94.40;;;;;;11877412;28;20045;-76
2021/05/22 09:13:36;;;;;;;9.48;1.63;;;15.10;94.30;;;;;;11901244;28;20053;-75
2021/05/22 09:19:29;;;;;;;14.23;1.95;;;15.20;94.10;;;;;;11898101;28;20397;-74
2021/05/22 09:25:16;;;;;;;13.25;2.35;;;15.30;94.00;;;;;;11933459;28;20049;-74
2021/05/22 09:31:05;;;;;;;14.10;2.53;;;15.40;93.50;;;;;;11911472;28;20061;-74
2021/05/22 09:36:53;;;;;;;15.50;2.28;;;15.60;92.70;;;;;;11900471;28;20428;-74
2021/05/22 09:42:41;;;;;;;12.43;2.08;;;15.70;92.60;;;;;;11893783;28;20060;-74
2021/05/22 09:48:28;;;;;;;10.70;1.80;;;15.60;92.50;;;;;;11925540;28;20046;-74
2021/05/22 09:54:15;;;;;;;8.85;1.30;;;15.90;92.10;;;;;;11929191;28;20089;-75
2021/05/22 10:00:11;;;;;;;8.68;1.75;;;16.20;92.10;;;;;;11888815;28;20054;-75
2021/05/22 10:05:57;;;;;;;14.73;2.28;;;16.10;91.30;;;;;;11884954;28;20471;-74
2021/05/22 10:12:09;;;;;;;9.02;1.60;;;16.10;90.60;;;;;;11915107;28;20053;-75
2021/05/22 10:17:57;;;;;;;12.43;2.03;;;15.90;90.60;;;;;;11916993;28;20064;-73
2021/05/22 10:23:46;;;;;;;8.15;1.52;;;15.90;90.80;;;;;;11918353;28;20053;-73
2021/05/22 10:29:33;;;;;;;8.23;1.85;;;15.90;91.30;;;;;;11909812;28;21018;-75
2021/05/22 10:35:24;;;;;;;13.93;2.30;;;16.40;89.80;;;;;;11876859;28;20054;-73
2021/05/22 10:41:12;;;;;;;11.90;2.28;;;16.60;88.90;;;;;;11866834;28;20058;-78
2021/05/22 10:47:11;;;;;;;6.13;1.73;;;16.60;88.60;;;;;;11907063;28;20050;-79
2021/05/22 10:53:22;;;;;;;11.55;1.60;;;16.80;87.40;;;;;;11917714;28;20053;-79
2021/05/22 10:59:13;;;;;;;9.13;1.38;;;16.50;89.50;;;;;;11887899;28;20109;-80
2021/05/22 11:05:37;;;;;;;8.82;1.73;;;16.30;91.00;;;;;;11906728;28;20053;-79
2021/05/22 11:11:33;;;;;;;8.17;1.40;;;15.80;94.50;;;;;;11930422;28;20050;-80
2021/05/22 11:17:50;;;;;;;5.32;1.30;;;15.30;93.60;;;;;;11937239;28;20675;-80
2021/05/22 11:24:04;;;;;;;7.97;1.38;;;15.50;93.70;;;;;;11937419;28;20654;-80
2021/05/22 11:29:57;;;;;;;3.05;1.08;;;16.30;92.50;;;;;;11929119;28;20052;-80
2021/05/22 11:35:46;;;;;;;3.13;1.20;;;16.50;90.10;;;;;;11930854;28;20060;-73
2021/05/22 11:41:34;;;;;;;4.85;1.10;;;16.40;91.30;;;;;;11926606;28;20132;-80
2021/05/22 11:47:20;;;;;;;6.93;1.23;;;16.80;90.70;;;;;;11932614;28;20050;-76
2021/05/22 11:53:13;;;;;;;5.68;1.30;;;17.10;85.90;;;;;;11924368;28;20060;-75
2021/05/22 11:59:05;;;;;;;4.57;1.37;;;17.30;86.80;;;;;;11959689;28;20053;-77
2021/05/22 12:04:51;;;;;;;28.20;15.38;;;17.50;85.60;;;;;;11925399;28;20303;-75
2021/05/22 12:10:38;;;;;;;4.25;1.38;;;17.60;81.90;;;;;;11926223;28;20046;-76
2021/05/22 12:16:27;;;;;;;5.18;1.27;;;17.60;80.80;;;;;;11923407;28;20054;-76
2021/05/22 12:22:14;;;;;;;2.90;1.00;;;18.20;81.10;;;;;;11915154;28;20069;-75
2021/05/22 12:28:01;;;;;;;6.65;1.30;;;18.50;76.30;;;;;;11906728;28;20056;-76
2021/05/22 12:34:03;;;;;;;5.40;1.17;;;18.80;75.20;;;;;;11923315;28;20053;-76
2021/05/22 12:39:51;;;;;;;6.85;1.27;;;19.20;73.30;;;;;;11929972;28;20107;-80
2021/05/22 12:45:41;;;;;;;9.35;1.40;;;18.80;73.30;;;;;;11908562;28;20068;-79
2021/05/22 12:51:36;;;;;;;7.70;1.20;;;19.00;70.40;;;;;;11922548;28;20107;-84
2021/05/22 12:57:24;;;;;;;4.95;1.08;;;19.40;71.20;;;;;;11917243;28;20057;-77
2021/05/22 13:03:10;;;;;;;7.38;1.38;;;19.50;71.50;;;;;;11878092;28;20053;-76
2021/05/22 13:09:06;;;;;;;5.70;1.15;;;19.30;71.50;;;;;;11922486;28;20574;-76
2021/05/22 13:14:54;;;;;;;8.95;1.33;;;17.90;84.10;;;;;;11928779;28;20681;-76
2021/05/22 13:20:42;;;;;;;5.03;1.27;;;17.00;87.50;;;;;;11928684;28;20080;-77
2021/05/22 13:26:30;;;;;;;6.97;1.00;;;16.90;91.20;;;;;;11922753;28;20552;-76
2021/05/22 13:32:16;;;;;;;3.85;0.90;;;16.90;90.70;;;;;;11892095;28;20057;-77
2021/05/22 13:38:03;;;;;;;5.72;1.17;;;17.20;88.80;;;;;;11941886;28;20072;-77
2021/05/22 13:43:50;;;;;;;3.55;0.95;;;17.80;85.60;;;;;;11945885;28;20050;-77
2021/05/22 13:49:37;;;;;;;3.92;0.98;;;18.00;83.80;;;;;;11945165;28;20069;-76
2021/05/22 13:55:23;;;;;;;4.60;0.90;;;18.10;83.60;;;;;;11914939;28;20637;-77
2021/05/22 14:01:11;;;;;;;5.10;1.30;;;18.10;82.50;;;;;;11930022;28;20050;-77
2021/05/22 14:06:58;;;;;;;4.32;1.20;;;18.10;87.50;;;;;;11934049;28;20092;-77
2021/05/22 14:12:44;;;;;;;6.30;1.00;;;18.70;87.80;;;;;;11934573;28;20081;-77
2021/05/22 14:18:32;;;;;;;6.35;1.35;;;19.10;83.50;;;;;;11940048;28;20049;-75
2021/05/22 14:24:18;;;;;;;5.88;1.33;;;18.90;85.00;;;;;;11938711;28;20493;-76
2021/05/22 14:30:10;;;;;;;4.53;1.35;;;18.50;83.30;;;;;;11940804;28;20111;-77
2021/05/22 14:35:57;;;;;;;5.63;1.10;;;17.90;81.70;;;;;;11935404;28;20115;-78
2021/05/22 14:41:44;;;;;;;7.63;2.03;;;17.50;80.70;;;;;;11932161;28;20135;-77
2021/05/22 14:47:30;;;;;;;4.43;0.95;;;17.80;82.80;;;;;;11936299;28;20049;-77
2021/05/22 14:53:18;;;;;;;2.97;0.98;;;18.60;82.90;;;;;;11950346;28;20045;-77
2021/05/22 14:59:05;;;;;;;3.90;0.82;;;18.70;77.40;;;;;;11950675;28;20107;-78
2021/05/22 15:04:51;;;;;;;4.10;1.10;;;18.30;78.80;;;;;;11952773;28;20544;-77
2021/05/22 15:10:38;;;;;;;7.88;0.93;;;18.20;79.00;;;;;;11949531;28;20041;-77
2021/05/22 15:16:25;;;;;;;6.10;1.08;;;17.90;80.80;;;;;;11954653;28;20057;-77
2021/05/22 15:22:11;;;;;;;7.72;1.10;;;17.70;81.10;;;;;;11957405;28;20149;-77
2021/05/22 15:27:58;;;;;;;7.38;1.30;;;16.50;81.60;;;;;;11951930;28;20052;-76
2021/05/22 15:33:45;;;;;;;14.65;2.08;;;15.50;94.40;;;;;;11947198;28;20053;-78
2021/05/22 15:39:31;;;;;;;13.35;1.65;;;14.30;99.90;;;;;;11957297;28;20060;-79
2021/05/22 15:45:20;;;;;;;7.53;1.40;;;15.00;99.90;;;;;;11945522;28;20060;-78
2021/05/22 16:03:43;;;;;;;5.93;1.33;;;18.90;99.90;;;;;;11946061;28;20053;-78
2021/05/22 16:09:29;;;;;;;4.53;1.20;;;22.40;99.90;;;;;;11941335;28;20057;-78
2021/05/22 16:15:16;;;;;;;6.07;1.25;;;23.40;95.60;;;;;;11947584;28;20064;-78
2021/05/22 16:21:04;;;;;;;3.50;0.98;;;21.90;95.90;;;;;;11947545;28;20100;-79
2021/05/22 16:26:50;;;;;;;4.53;1.08;;;22.40;88.80;;;;;;11932651;28;20045;-80
2021/05/22 16:32:37;;;;;;;9.63;2.60;;;24.30;81.20;;;;;;11943170;28;20053;-79
2021/05/22 16:38:45;;;;;;;3.85;1.05;;;25.20;75.30;;;;;;11933085;28;20049;-82
2021/05/22 16:44:32;;;;;;;1.25;0.80;;;26.30;68.20;;;;;;11898314;28;20045;-77
2021/05/22 16:50:21;;;;;;;2.85;0.80;;;27.30;60.00;;;;;;11909206;28;20053;-78
2021/05/22 16:56:16;;;;;;;1.27;0.80;;;27.80;54.20;;;;;;11921738;28;20053;-80
2021/05/22 17:02:03;;;;;;;3.40;0.80;;;28.00;53.80;;;;;;11920126;28;20057;-77
2021/05/22 17:07:50;;;;;;;2.38;0.85;;;28.90;49.40;;;;;;11901722;28;20098;-77
2021/05/22 17:13:37;;;;;;;3.38;1.13;;;28.80;48.30;;;;;;11893625;28;20513;-78
2021/05/22 17:19:25;;;;;;;4.22;1.00;;;28.80;47.50;;;;;;11928193;28;20063;-78
2021/05/22 17:25:13;;;;;;;5.30;0.93;;;28.00;48.10;;;;;;11909825;28;20057;-78
2021/05/22 17:31:00;;;;;;;3.08;0.90;;;24.80;52.50;;;;;;11925060;28;20530;-77
2021/05/22 17:36:47;;;;;;;10.05;1.70;;;22.30;61.50;;;;;;11923639;28;20520;-77
2021/05/22 17:42:34;;;;;;;4.20;0.77;;;20.80;69.50;;;;;;11900871;28;20111;-78
2021/05/22 17:48:23;;;;;;;2.05;0.63;;;19.00;75.00;;;;;;11896475;28;20057;-77
2021/05/22 17:54:09;;;;;;;1.30;0.80;;;17.70;79.50;;;;;;11904106;28;20060;-78
2021/05/22 17:59:57;;;;;;;2.45;0.90;;;16.60;83.50;;;;;;11914544;28;20060;-78
2021/05/22 18:05:46;;;;;;;8.70;1.00;;;16.00;90.30;;;;;;11908351;28;20049;-78
2021/05/22 18:11:33;;;;;;;3.30;1.00;;;15.50;94.20;;;;;;11907766;28;20129;-78
2021/05/22 18:17:19;;;;;;;3.30;0.80;;;16.20;94.80;;;;;;11911450;28;20046;-78
2021/05/22 18:23:09;;;;;;;3.55;0.77;;;19.10;90.00;;;;;;11904447;28;20114;-78
2021/05/22 18:28:59;;;;;;;3.58;0.98;;;22.10;74.20;;;;;;11905353;28;20782;-79
2021/05/22 18:34:45;;;;;;;4.18;0.90;;;20.80;73.30;;;;;;11912287;28;20057;-77
2021/05/22 18:40:35;;;;;;;3.72;0.80;;;19.00;79.10;;;;;;11905993;28;20508;-78
2021/05/22 18:46:22;;;;;;;1.67;0.70;;;18.00;81.80;;;;;;11902051;28;20111;-77
2021/05/22 18:52:11;;;;;;;1.45;0.70;;;17.90;83.30;;;;;;11899081;28;20053;-78
2021/05/22 18:58:00;;;;;;;2.83;0.80;;;19.80;74.30;;;;;;11903868;28;20053;-77
2021/05/22 19:03:48;;;;;;;3.97;0.88;;;19.50;74.50;;;;;;11901924;28;20078;-78
2021/05/22 19:09:35;;;;;;;1.38;0.70;;;18.70;81.20;;;;;;11908791;28;20060;-79
2021/05/22 19:15:24;;;;;;;2.85;0.80;;;18.20;83.80;;;;;;11816964;28;20058;-80
2021/05/22 19:21:16;;;;;;;10.70;5.38;;;17.80;82.60;;;;;;11885329;28;20049;-80
2021/05/22 19:27:04;;;;;;;19.90;7.95;;;17.40;84.60;;;;;;11898663;28;20505;-79
2021/05/22 19:32:52;;;;;;;5.90;1.75;;;17.00;85.70;;;;;;11868261;28;20523;-79
2021/05/22 19:38:39;;;;;;;3.60;1.50;;;16.70;86.00;;;;;;11904994;28;20136;-79
2021/05/22 19:44:25;;;;;;;7.90;1.35;;;16.50;89.30;;;;;;11919793;28;20057;-78
2021/05/22 19:50:14;;;;;;;2.72;1.00;;;16.20;88.80;;;;;;11919249;28;20053;-79
2021/05/22 19:56:03;;;;;;;2.30;0.95;;;16.20;90.30;;;;;;11802681;28;20077;-77
2021/05/22 20:01:50;;;;;;;3.90;0.93;;;16.20;90.10;;;;;;11924383;28;20053;-79
2021/05/22 20:07:38;;;;;;;3.75;1.50;;;16.00;90.90;;;;;;11921206;28;20416;-78
2021/05/22 20:13:24;;;;;;;3.13;1.00;;;15.90;91.20;;;;;;11925548;28;20053;-79
2021/05/22 20:19:11;;;;;;;3.00;1.10;;;15.80;91.40;;;;;;11921242;28;20054;-78
2021/05/22 20:25:01;;;;;;;3.58;1.10;;;15.70;91.50;;;;;;11919705;28;20062;-79
2021/05/22 20:30:47;;;;;;;1.75;0.98;;;15.60;91.90;;;;;;11921554;28;20054;-78
2021/05/22 20:36:33;;;;;;;1.85;0.95;;;15.60;92.60;;;;;;11902242;28;20645;-78
2021/05/22 20:42:21;;;;;;;2.72;1.10;;;15.60;93.20;;;;;;11928291;28;20504;-78
2021/05/22 20:48:10;;;;;;;3.03;0.98;;;15.60;93.00;;;;;;11878181;28;20086;-79
2021/05/22 20:53:56;;;;;;;3.50;1.27;;;15.60;92.70;;;;;;11881312;28;20058;-79
2021/05/22 20:59:46;;;;;;;4.43;1.65;;;15.60;93.60;;;;;;11914070;28;20183;-79
2021/05/22 21:05:33;;;;;;;7.30;1.70;;;15.50;93.70;;;;;;11912708;28;20526;-78
2021/05/22 21:11:19;;;;;;;4.55;1.10;;;15.50;94.00;;;;;;11907769;28;20060;-77
2021/05/22 21:17:09;;;;;;;2.67;1.40;;;15.40;94.00;;;;;;11910890;28;20072;-77
2021/05/22 21:22:59;;;;;;;3.67;2.08;;;15.40;94.10;;;;;;11914034;28;20555;-77
2021/05/22 21:28:46;;;;;;;15.77;9.48;;;15.40;94.70;;;;;;11884417;28;20050;-77
2021/05/22 21:34:33;;;;;;;6.78;3.08;;;15.40;94.70;;;;;;11909584;28;20064;-78
2021/05/22 21:40:20;;;;;;;11.40;4.85;;;15.40;94.80;;;;;;11922388;28;20058;-79
2021/05/22 21:46:06;;;;;;;12.27;3.08;;;15.40;95.00;;;;;;11881470;28;20526;-77
2021/05/22 21:51:54;;;;;;;7.90;2.00;;;15.40;94.70;;;;;;11891263;28;20046;-76
2021/05/22 21:57:41;;;;;;;5.60;2.90;;;15.30;95.30;;;;;;11895030;28;20053;-77
2021/05/22 22:03:31;;;;;;;5.88;3.30;;;15.20;95.20;;;;;;11874202;28;20133;-77
2021/05/22 22:09:18;;;;;;;7.20;1.92;;;15.20;95.50;;;;;;11899048;28;20061;-78
2021/05/22 22:15:06;;;;;;;6.95;3.45;;;15.20;95.50;;;;;;11900968;28;20857;-78
2021/05/22 22:20:55;;;;;;;4.50;2.55;;;15.20;96.40;;;;;;11873629;28;20079;-77
2021/05/22 22:26:44;;;;;;;5.45;2.20;;;15.20;96.00;;;;;;11919773;28;20147;-78
2021/05/22 22:32:30;;;;;;;2.80;1.73;;;15.20;96.10;;;;;;11911456;28;20134;-77
2021/05/22 22:38:17;;;;;;;3.30;2.20;;;15.10;95.50;;;;;;11885136;28;20072;-78
2021/05/22 22:44:05;;;;;;;9.18;2.65;;;15.10;96.10;;;;;;11886434;28;20046;-78
2021/05/22 22:49:52;;;;;;;3.60;1.58;;;15.00;95.60;;;;;;11882265;28;20062;-78
2021/05/22 22:55:39;;;;;;;4.47;1.98;;;14.90;95.90;;;;;;11892100;28;20061;-77
2021/05/22 23:01:27;;;;;;;16.13;1.70;;;14.90;96.70;;;;;;11859795;28;20046;-78
2021/05/22 23:07:13;;;;;;;11.23;1.48;;;14.90;96.40;;;;;;11869853;28;20054;-78
2021/05/22 23:13:01;;;;;;;2.90;1.42;;;15.00;96.40;;;;;;11893816;28;20393;-78
2021/05/22 23:18:48;;;;;;;4.63;1.70;;;14.90;96.30;;;;;;11902338;28;20056;-78
2021/05/22 23:24:34;;;;;;;3.78;1.20;;;15.00;96.70;;;;;;11875474;28;20053;-79
2021/05/22 23:30:24;;;;;;;3.30;1.40;;;15.00;96.90;;;;;;11922455;28;27231;-79
2021/05/22 23:36:12;;;;;;;4.15;1.48;;;14.90;96.40;;;;;;11904691;28;20493;-77
2021/05/22 23:41:58;;;;;;;6.28;1.50;;;14.90;96.50;;;;;;11894587;28;20049;-79
2021/05/22 23:47:47;;;;;;;5.65;1.25;;;14.80;97.00;;;;;;11886230;28;20060;-78
2021/05/22 23:53:34;;;;;;;4.07;1.50;;;14.70;96.70;;;;;;11905954;28;20068;-79
2021/05/22 23:59:20;;;;;;;2.97;1.42;;;14.60;96.80;;;;;;11890960;28;21344;-79
